Time;durP1;ratioP1;P1;durP2;ratioP2;P2;SDS_P1;SDS_P2;PMS_P1;PMS_P2;Temp;Humidity;BMP_temperature;BMP_pressure;BME280_temperature;BME280_humidity;BME280_pressure;Samples;Min_cycle;Max_cycle;Signal;HPM_P1;HPM_P2
2022/12/01 00:08:12;;;;;;;19.80;9.88;;;4.30;99.90;;;;;;21333209;27;20071;-83
2022/12/01 00:18:13;;;;;;;20.90;8.75;;;4.30;99.90;;;;;;21327930;27;20031;-84
2022/12/01 00:28:13;;;;;;;23.80;9.38;;;4.30;99.90;;;;;;21293827;27;20042;-82
2022/12/01 00:38:14;;;;;;;21.23;9.20;;;4.30;99.90;;;;;;21273036;27;20176;-83
2022/12/01 00:48:15;;;;;;;26.55;10.30;;;4.20;99.90;;;;;;21250461;27;20031;-83
2022/12/01 00:58:16;;;;;;;25.75;11.10;;;4.20;99.90;;;;;;21251038;27;20050;-83
2022/12/01 01:08:16;;;;;;;23.15;10.18;;;4.20;99.90;;;;;;21248826;27;20038;-83
2022/12/01 01:18:17;;;;;;;;;;;4.20;99.90;;;;;;21243709;27;20030;-83
2022/12/01 01:28:18;;;;;;;26.83;11.53;;;4.20;99.90;;;;;;21322697;27;20420;-83
2022/12/01 01:38:19;;;;;;;27.75;11.10;;;4.30;99.90;;;;;;21341176;27;20030;-83
2022/12/01 01:48:20;;;;;;;27.02;10.60;;;4.30;99.90;;;;;;21302949;27;20026;-83
2022/12/01 01:58:22;;;;;;;32.35;10.40;;;4.30;99.90;;;;;;21319088;27;20101;-83
2022/12/01 02:08:22;;;;;;;23.20;10.80;;;4.20;99.90;;;;;;21318633;27;20529;-83
2022/12/01 02:18:33;;;;;;;25.50;11.07;;;4.30;99.90;;;;;;21320863;27;20065;-82
2022/12/01 02:28:52;;;;;;;26.52;11.23;;;4.30;99.90;;;;;;21231490;27;20401;-82
2022/12/01 02:39:09;;;;;;;28.67;12.30;;;4.20;99.90;;;;;;21213262;27;20145;-82
2022/12/01 02:49:17;;;;;;;25.63;10.43;;;4.20;99.90;;;;;;21229732;27;20099;-83
2022/12/01 02:59:18;;;;;;;27.50;11.65;;;4.10;99.90;;;;;;21226981;27;20035;-83
2022/12/01 03:09:33;;;;;;;25.05;10.90;;;4.00;99.90;;;;;;21227237;27;20027;-83
2022/12/01 03:20:07;;;;;;;25.55;11.88;;;4.10;99.90;;;;;;21252280;27;20114;-82
2022/12/01 03:30:10;;;;;;;33.53;12.25;;;4.00;99.90;;;;;;21294646;27;20454;-83
2022/12/01 03:40:16;;;;;;;30.27;12.00;;;4.00;99.90;;;;;;21272204;27;20035;-83
2022/12/01 03:50:18;;;;;;;28.42;11.02;;;4.00;99.90;;;;;;21144347;28;20386;-82
2022/12/01 04:00:19;;;;;;;31.52;12.02;;;3.90;99.90;;;;;;21140411;28;20035;-83
2022/12/01 04:10:21;;;;;;;27.38;11.63;;;3.90;99.90;;;;;;21156673;28;20027;-82
2022/12/01 04:20:21;;;;;;;25.85;10.70;;;3.90;99.90;;;;;;21185296;27;20041;-82
2022/12/01 04:30:22;;;;;;;27.35;11.23;;;3.80;99.90;;;;;;21258467;27;20042;-82
2022/12/01 04:40:23;;;;;;;24.60;11.18;;;3.90;99.90;;;;;;21260662;27;20031;-82
2022/12/01 04:50:26;;;;;;;22.35;10.55;;;3.80;99.90;;;;;;21238678;27;20051;-83
2022/12/01 05:00:26;;;;;;;29.00;11.55;;;3.70;99.90;;;;;;21238274;27;20096;-82
2022/12/01 05:10:27;;;;;;;28.05;11.55;;;3.60;99.90;;;;;;21236790;27;20069;-82
2022/12/01 05:30:49;;;;;;;28.25;10.55;;;3.60;99.90;;;;;;21236706;27;20031;-81
2022/12/01 05:40:54;;;;;;;28.33;10.75;;;3.50;99.90;;;;;;21277708;27;20034;-82
2022/12/01 05:50:55;;;;;;;26.70;10.23;;;3.50;99.90;;;;;;21336609;27;20030;-83
2022/12/01 06:00:56;;;;;;;22.63;10.52;;;3.50;99.90;;;;;;21316867;27;20054;-83
2022/12/01 06:10:57;;;;;;;24.02;10.18;;;3.50;99.90;;;;;;21316063;27;20504;-82
2022/12/01 06:20:58;;;;;;;29.45;11.35;;;3.50;99.90;;;;;;21332830;27;20026;-83
2022/12/01 06:30:58;;;;;;;29.92;12.70;;;3.60;99.90;;;;;;21298045;27;20063;-84
2022/12/01 06:40:59;;;;;;;27.95;11.05;;;3.50;99.90;;;;;;21318541;27;20110;-83
2022/12/01 06:51:01;;;;;;;28.52;12.05;;;3.50;99.90;;;;;;21337577;27;20067;-80
2022/12/01 07:01:10;;;;;;;28.50;11.60;;;3.50;99.90;;;;;;21321471;27;20062;-80
2022/12/01 07:11:13;;;;;;;30.35;12.75;;;3.40;99.90;;;;;;21338358;27;20027;-81
2022/12/01 07:21:14;;;;;;;30.52;11.95;;;3.50;99.90;;;;;;21335823;27;20031;-82
2022/12/01 07:31:17;;;;;;;24.48;10.63;;;3.50;99.90;;;;;;21340178;27;20050;-81
2022/12/01 07:41:19;;;;;;;28.05;11.30;;;3.50;99.90;;;;;;21307313;27;20042;-82
2022/12/01 07:51:21;;;;;;;28.27;12.02;;;3.60;99.90;;;;;;21324572;27;20023;-82
2022/12/01 08:01:26;;;;;;;28.63;11.98;;;3.60;99.90;;;;;;21340915;27;20370;-81
2022/12/01 08:11:30;;;;;;;27.65;11.48;;;3.60;99.90;;;;;;21305124;27;20034;-81
2022/12/01 08:21:31;;;;;;;30.80;11.95;;;3.60;99.90;;;;;;21320880;27;20066;-81
2022/12/01 08:31:36;;;;;;;33.55;11.45;;;3.60;99.90;;;;;;21312703;27;20034;-81
2022/12/01 08:41:37;;;;;;;27.98;11.00;;;3.60;99.90;;;;;;21324236;27;20129;-81
2022/12/01 08:51:38;;;;;;;27.83;11.15;;;3.70;99.90;;;;;;21333468;27;20075;-81
2022/12/01 09:01:51;;;;;;;28.67;13.05;;;3.70;99.90;;;;;;21350583;27;20035;-81
2022/12/01 09:11:52;;;;;;;24.10;11.38;;;4.00;99.90;;;;;;21315181;27;20477;-81
2022/12/01 09:21:53;;;;;;;25.55;10.35;;;4.20;99.90;;;;;;21349821;27;20029;-81
2022/12/01 09:31:56;;;;;;;23.05;10.07;;;4.30;99.90;;;;;;21353469;27;20023;-82
2022/12/01 09:42:02;;;;;;;26.55;10.18;;;4.40;99.90;;;;;;21315380;27;20029;-81
2022/12/01 09:52:03;;;;;;;54.97;19.63;;;4.40;99.90;;;;;;21349326;27;20026;-81
2022/12/01 10:02:12;;;;;;;;;;;4.70;99.90;;;;;;21348121;27;20056;-81
2022/12/01 10:12:19;;;;;;;19.35;8.55;;;4.80;99.90;;;;;;21348557;27;19930;-81
2022/12/01 10:22:57;;;;;;;18.58;8.30;;;5.00;99.90;;;;;;21347159;27;20030;-81
2022/12/01 10:33:15;;;;;;;26.20;8.88;;;4.80;99.90;;;;;;21347738;27;20389;-81
2022/12/01 10:43:16;;;;;;;17.42;8.13;;;4.70;99.90;;;;;;21329441;27;20493;-80
2022/12/01 10:53:23;;;;;;;;;;;4.70;99.90;;;;;;21306609;27;20037;-82
2022/12/01 11:03:29;;;;;;;18.25;7.47;;;5.00;99.90;;;;;;21304905;27;19907;-82
2022/12/01 11:13:34;;;;;;;19.83;8.10;;;5.10;99.90;;;;;;21327206;27;20065;-81
2022/12/01 11:23:43;;;;;;;20.58;8.05;;;5.20;99.90;;;;;;21320831;27;20042;-82
2022/12/01 11:33:49;;;;;;;18.15;7.93;;;5.40;99.90;;;;;;21337114;27;20038;-82
2022/12/01 11:43:49;;;;;;;14.70;6.55;;;5.70;99.90;;;;;;21332407;27;20026;-83
2022/12/01 11:54:13;;;;;;;16.93;7.50;;;5.80;99.90;;;;;;21313728;27;20034;-82
2022/12/01 12:04:35;;;;;;;14.93;6.43;;;5.50;99.90;;;;;;21337825;27;20280;-82
2022/12/01 12:14:42;;;;;;;;;;;5.50;99.90;;;;;;21359741;27;20027;-84
2022/12/01 12:25:04;;;;;;;16.15;6.75;;;5.70;99.90;;;;;;21346974;27;19911;-82
2022/12/01 12:35:27;;;;;;;19.13;7.90;;;5.60;99.90;;;;;;21361849;27;20037;-81
2022/12/01 12:45:45;;;;;;;17.15;6.78;;;5.50;99.90;;;;;;21352216;27;20056;-81
2022/12/01 12:55:50;;;;;;;14.50;6.50;;;5.50;99.90;;;;;;21333753;27;20030;-81
2022/12/01 13:06:00;;;;;;;16.83;7.22;;;5.50;99.90;;;;;;21336003;27;20393;-81
2022/12/01 13:16:03;;;;;;;18.55;8.32;;;5.40;99.90;;;;;;21351973;27;20022;-82
2022/12/01 13:26:07;;;;;;;19.63;7.80;;;5.40;99.90;;;;;;21343531;27;20035;-82
2022/12/01 13:36:10;;;;;;;17.10;6.32;;;5.40;99.90;;;;;;21365348;27;20037;-82
2022/12/01 13:46:40;;;;;;;13.60;6.50;;;5.20;99.90;;;;;;21318920;27;20055;-81
2022/12/01 13:56:57;;;;;;;30.38;14.65;;;5.20;99.90;;;;;;21306816;27;20031;-81
2022/12/01 14:07:36;;;;;;;14.13;6.97;;;5.20;99.90;;;;;;21334997;27;20390;-81
2022/12/01 14:17:37;;;;;;;15.55;6.97;;;5.10;99.90;;;;;;21331368;27;20409;-81
2022/12/01 14:27:41;;;;;;;16.15;6.90;;;5.00;99.90;;;;;;21349234;27;20085;-80
2022/12/01 14:37:45;;;;;;;17.65;7.53;;;4.90;99.90;;;;;;21348799;27;20370;-80
2022/12/01 14:47:54;;;;;;;20.90;7.72;;;4.90;99.90;;;;;;21332755;27;20031;-82
2022/12/01 14:58:05;;;;;;;16.33;7.55;;;4.80;99.90;;;;;;21332344;27;20037;-83
2022/12/01 15:08:27;;;;;;;15.87;6.93;;;4.80;99.90;;;;;;21347355;27;20074;-81
2022/12/01 15:18:32;;;;;;;17.52;8.32;;;4.70;99.90;;;;;;21334224;27;20066;-81
2022/12/01 15:28:34;;;;;;;15.95;7.40;;;4.60;99.90;;;;;;21311104;27;20489;-83
2022/12/01 15:38:36;;;;;;;17.52;7.75;;;4.60;99.90;;;;;;21325587;27;20031;-83
2022/12/01 15:48:37;;;;;;;19.17;7.97;;;4.60;99.90;;;;;;21354112;27;20080;-82
2022/12/01 15:58:43;;;;;;;;;;;4.50;99.90;;;;;;21390097;27;20423;-83
2022/12/01 16:09:05;;;;;;;20.80;7.90;;;4.50;99.90;;;;;;21344756;27;19907;-82
2022/12/01 16:19:09;;;;;;;16.05;7.60;;;4.50;99.90;;;;;;21312557;27;20155;-83
2022/12/01 16:29:18;;;;;;;24.52;9.18;;;4.50;99.90;;;;;;21235319;27;20045;-83
2022/12/01 16:39:19;;;;;;;17.75;8.27;;;4.50;99.90;;;;;;21230505;27;20035;-83
2022/12/01 16:49:20;;;;;;;;;;;4.40;99.90;;;;;;21234559;27;20474;-84
2022/12/01 16:59:21;;;;;;;15.35;7.32;;;4.40;99.90;;;;;;21244252;27;19964;-82
2022/12/01 17:09:22;;;;;;;;;;;4.30;99.90;;;;;;21246900;27;20031;-82
2022/12/01 17:19:23;;;;;;;16.27;7.18;;;4.30;99.90;;;;;;21275494;27;19950;-83
2022/12/01 17:29:25;;;;;;;38.90;16.40;;;4.30;99.90;;;;;;21253882;27;20407;-85
2022/12/01 17:39:26;;;;;;;20.05;8.95;;;4.20;99.90;;;;;;21227131;27;20041;-83
2022/12/01 17:49:26;;;;;;;13.05;7.00;;;4.10;99.90;;;;;;21264120;27;20557;-85
2022/12/01 17:59:27;;;;;;;14.88;7.35;;;4.10;99.90;;;;;;21230908;27;20034;-84
2022/12/01 18:09:28;;;;;;;;;;;4.10;99.90;;;;;;21236968;27;20027;-85
2022/12/01 18:19:29;;;;;;;23.02;9.13;;;4.10;99.90;;;;;;21259690;27;19926;-83
2022/12/01 18:29:30;;;;;;;32.47;12.75;;;4.00;99.90;;;;;;21337091;27;20031;-83
2022/12/01 18:39:31;;;;;;;29.10;11.88;;;4.00;99.90;;;;;;21359578;27;20112;-84
2022/12/01 18:49:32;;;;;;;21.92;8.93;;;4.10;99.90;;;;;;21350147;27;20023;-84
2022/12/01 18:59:33;;;;;;;;;;;4.10;99.90;;;;;;21333804;27;20034;-82
2022/12/01 19:09:34;;;;;;;25.77;11.45;;;4.20;99.90;;;;;;21339578;27;19914;-82
2022/12/01 19:19:35;;;;;;;30.88;12.88;;;4.10;99.90;;;;;;21310510;27;20031;-83
2022/12/01 19:29:36;;;;;;;31.23;12.50;;;4.10;99.90;;;;;;21263265;27;20466;-82
2022/12/01 19:39:37;;;;;;;;;;;4.10;99.90;;;;;;21231466;27;20027;-83
2022/12/01 19:49:38;;;;;;;29.25;10.07;;;4.10;99.90;;;;;;21253498;27;19930;-82
2022/12/01 19:59:38;;;;;;;41.95;16.90;;;4.00;99.90;;;;;;21228193;28;20067;-82
2022/12/01 20:09:40;;;;;;;31.00;13.85;;;3.90;99.90;;;;;;21249839;27;20454;-83
2022/12/01 20:19:41;;;;;;;33.20;13.35;;;4.00;99.90;;;;;;21261140;27;20039;-83
2022/12/01 20:29:42;;;;;;;;;;;4.00;99.90;;;;;;21335378;27;20396;-83
2022/12/01 20:39:43;;;;;;;27.00;11.63;;;4.00;99.90;;;;;;21342022;27;20393;-83
2022/12/01 20:49:44;;;;;;;;;;;4.00;99.90;;;;;;21368389;27;20786;-83
2022/12/01 20:59:44;;;;;;;30.17;13.38;;;3.90;99.90;;;;;;21367226;27;19945;-83
2022/12/01 21:09:47;;;;;;;30.05;12.25;;;3.80;99.90;;;;;;21360473;27;20084;-83
2022/12/01 21:20:16;;;;;;;31.60;13.48;;;3.80;99.90;;;;;;21295523;27;20031;-82
2022/12/01 21:30:21;;;;;;;32.80;12.80;;;3.80;99.90;;;;;;21250797;27;20046;-82
2022/12/01 21:40:24;;;;;;;37.53;14.15;;;3.80;99.90;;;;;;21254410;27;20027;-83
2022/12/01 21:50:26;;;;;;;32.75;13.68;;;3.80;99.90;;;;;;21225971;27;20045;-83
2022/12/01 22:00:26;;;;;;;32.95;12.80;;;3.70;99.90;;;;;;21262793;27;20439;-82
2022/12/01 22:10:49;;;;;;;33.38;13.13;;;3.70;99.90;;;;;;21259712;27;20031;-82
2022/12/01 22:20:50;;;;;;;37.33;14.40;;;3.70;99.90;;;;;;21233851;27;20604;-82
2022/12/01 22:30:51;;;;;;;30.60;13.20;;;3.70;99.90;;;;;;21215363;27;20034;-82
2022/12/01 22:40:57;;;;;;;38.88;13.90;;;3.70;99.90;;;;;;21236673;27;20134;-82
2022/12/01 22:51:23;;;;;;;36.00;13.95;;;3.50;99.90;;;;;;21238149;27;20027;-82
2022/12/01 23:01:32;;;;;;;37.08;15.32;;;3.60;99.90;;;;;;21211986;27;20080;-82
2022/12/01 23:11:33;;;;;;;36.88;15.73;;;3.50;99.90;;;;;;21236843;27;20513;-82
2022/12/01 23:21:35;;;;;;;33.88;14.82;;;3.30;99.90;;;;;;21280866;27;20171;-82
2022/12/01 23:31:36;;;;;;;43.78;16.65;;;3.30;99.90;;;;;;21344890;27;20062;-82
2022/12/01 23:41:40;;;;;;;40.97;15.77;;;3.30;99.90;;;;;;21352949;27;20046;-82
2022/12/01 23:51:47;;;;;;;42.33;16.38;;;3.30;99.90;;;;;;21321736;27;20489;-82
